sensor_id;sensor_type;location;lat;lon;timestamp;temperature;humidity
19847;DHT22;10084;50.518;8.588;2022-11-28T00:02:00;5.20;86.10
19847;DHT22;10084;50.518;8.588;2022-11-28T00:04:25;5.20;86.10
19847;DHT22;10084;50.518;8.588;2022-11-28T00:06:51;5.20;86.20
19847;DHT22;10084;50.518;8.588;2022-11-28T00:09:18;5.30;86.20
19847;DHT22;10084;50.518;8.588;2022-11-28T00:11:45;5.20;86.20
19847;DHT22;10084;50.518;8.588;2022-11-28T00:14:13;5.20;86.10
19847;DHT22;10084;50.518;8.588;2022-11-28T00:16:39;5.20;86.20
19847;DHT22;10084;50.518;8.588;2022-11-28T00:19:06;5.20;87.40
19847;DHT22;10084;50.518;8.588;2022-11-28T00:21:32;5.20;86.10
19847;DHT22;10084;50.518;8.588;2022-11-28T00:23:58;5.20;86.10
19847;DHT22;10084;50.518;8.588;2022-11-28T00:26:30;5.20;86.10
19847;DHT22;10084;50.518;8.588;2022-11-28T00:28:57;5.20;86.10
19847;DHT22;10084;50.518;8.588;2022-11-28T00:31:26;5.20;86.00
19847;DHT22;10084;50.518;8.588;2022-11-28T00:33:53;5.10;85.90
19847;DHT22;10084;50.518;8.588;2022-11-28T00:36:20;5.10;85.90
19847;DHT22;10084;50.518;8.588;2022-11-28T00:38:46;5.10;85.90
19847;DHT22;10084;50.518;8.588;2022-11-28T00:41:15;5.10;86.00
19847;DHT22;10084;50.518;8.588;2022-11-28T00:43:42;5.00;85.90
19847;DHT22;10084;50.518;8.588;2022-11-28T00:46:08;5.00;86.00
19847;DHT22;10084;50.518;8.588;2022-11-28T00:48:35;5.00;86.00
19847;DHT22;10084;50.518;8.588;2022-11-28T00:51:19;5.00;86.00
19847;DHT22;10084;50.518;8.588;2022-11-28T00:53:47;4.90;86.10
19847;DHT22;10084;50.518;8.588;2022-11-28T00:56:16;4.90;86.20
19847;DHT22;10084;50.518;8.588;2022-11-28T00:58:42;4.90;86.20
19847;DHT22;10084;50.518;8.588;2022-11-28T01:01:17;4.90;86.30
19847;DHT22;10084;50.518;8.588;2022-11-28T01:03:44;4.90;86.30
19847;DHT22;10084;50.518;8.588;2022-11-28T01:06:18;4.90;86.40
19847;DHT22;10084;50.518;8.588;2022-11-28T01:08:44;4.90;86.40
19847;DHT22;10084;50.518;8.588;2022-11-28T01:11:11;4.90;86.50
19847;DHT22;10084;50.518;8.588;2022-11-28T01:13:38;4.90;86.50
19847;DHT22;10084;50.518;8.588;2022-11-28T01:16:04;4.90;86.50
19847;DHT22;10084;50.518;8.588;2022-11-28T01:18:29;4.90;86.50
19847;DHT22;10084;50.518;8.588;2022-11-28T01:20:55;4.90;86.50
19847;DHT22;10084;50.518;8.588;2022-11-28T01:23:21;4.90;87.20
19847;DHT22;10084;50.518;8.588;2022-11-28T01:25:46;4.90;86.40
19847;DHT22;10084;50.518;8.588;2022-11-28T01:28:12;4.90;86.60
19847;DHT22;10084;50.518;8.588;2022-11-28T01:30:38;4.90;87.40
19847;DHT22;10084;50.518;8.588;2022-11-28T01:33:04;4.90;86.30
19847;DHT22;10084;50.518;8.588;2022-11-28T01:35:29;4.90;86.30
19847;DHT22;10084;50.518;8.588;2022-11-28T01:37:55;4.90;86.10
19847;DHT22;10084;50.518;8.588;2022-11-28T01:40:21;4.90;86.90
19847;DHT22;10084;50.518;8.588;2022-11-28T01:42:47;4.90;86.20
19847;DHT22;10084;50.518;8.588;2022-11-28T01:45:29;4.90;86.20
19847;DHT22;10084;50.518;8.588;2022-11-28T01:47:59;4.90;86.30
19847;DHT22;10084;50.518;8.588;2022-11-28T01:50:28;4.90;86.30
19847;DHT22;10084;50.518;8.588;2022-11-28T01:52:57;4.90;86.30
19847;DHT22;10084;50.518;8.588;2022-11-28T01:55:26;5.00;86.30
19847;DHT22;10084;50.518;8.588;2022-11-28T01:57:54;5.00;86.30
19847;DHT22;10084;50.518;8.588;2022-11-28T02:00:21;5.00;86.30
19847;DHT22;10084;50.518;8.588;2022-11-28T02:02:55;5.00;86.30
19847;DHT22;10084;50.518;8.588;2022-11-28T02:05:22;5.00;86.20
19847;DHT22;10084;50.518;8.588;2022-11-28T02:07:49;5.00;86.20
19847;DHT22;10084;50.518;8.588;2022-11-28T02:10:19;5.00;86.20
19847;DHT22;10084;50.518;8.588;2022-11-28T02:18:31;5.00;86.10
19847;DHT22;10084;50.518;8.588;2022-11-28T02:26:30;5.00;86.10
19847;DHT22;10084;50.518;8.588;2022-11-28T02:34:56;5.00;86.20
19847;DHT22;10084;50.518;8.588;2022-11-28T02:37:32;5.00;86.20
19847;DHT22;10084;50.518;8.588;2022-11-28T02:40:18;5.00;86.10
19847;DHT22;10084;50.518;8.588;2022-11-28T02:42:59;5.00;86.10
19847;DHT22;10084;50.518;8.588;2022-11-28T02:48:09;5.00;85.90
19847;DHT22;10084;50.518;8.588;2022-11-28T02:51:30;5.00;86.00
19847;DHT22;10084;50.518;8.588;2022-11-28T02:53:31;5.00;86.00
19847;DHT22;10084;50.518;8.588;2022-11-28T02:55:58;4.90;86.00
19847;DHT22;10084;50.518;8.588;2022-11-28T02:58:24;5.00;86.10
19847;DHT22;10084;50.518;8.588;2022-11-28T03:00:50;4.90;86.20
19847;DHT22;10084;50.518;8.588;2022-11-28T03:06:11;5.00;86.50
19847;DHT22;10084;50.518;8.588;2022-11-28T03:17:13;5.00;86.50
19847;DHT22;10084;50.518;8.588;2022-11-28T03:19:47;5.10;86.60
19847;DHT22;10084;50.518;8.588;2022-11-28T03:22:19;5.10;86.40
19847;DHT22;10084;50.518;8.588;2022-11-28T03:24:56;5.10;86.30
19847;DHT22;10084;50.518;8.588;2022-11-28T03:27:32;5.10;86.30
19847;DHT22;10084;50.518;8.588;2022-11-28T03:32:50;5.10;86.20
19847;DHT22;10084;50.518;8.588;2022-11-28T03:35:21;5.10;86.10
19847;DHT22;10084;50.518;8.588;2022-11-28T03:37:54;5.00;85.90
19847;DHT22;10084;50.518;8.588;2022-11-28T03:40:30;5.00;86.00
19847;DHT22;10084;50.518;8.588;2022-11-28T03:43:00;5.00;86.10
19847;DHT22;10084;50.518;8.588;2022-11-28T03:46:06;5.00;86.10
19847;DHT22;10084;50.518;8.588;2022-11-28T03:48:29;5.00;86.20
19847;DHT22;10084;50.518;8.588;2022-11-28T03:51:11;5.00;86.20
19847;DHT22;10084;50.518;8.588;2022-11-28T03:59:21;5.00;86.30
19847;DHT22;10084;50.518;8.588;2022-11-28T04:01:52;5.00;86.30
19847;DHT22;10084;50.518;8.588;2022-11-28T04:07:48;4.90;86.30
19847;DHT22;10084;50.518;8.588;2022-11-28T04:10:30;5.00;86.20
19847;DHT22;10084;50.518;8.588;2022-11-28T04:13:06;4.90;86.20
19847;DHT22;10084;50.518;8.588;2022-11-28T04:18:26;4.90;86.30
19847;DHT22;10084;50.518;8.588;2022-11-28T04:21:09;4.90;86.50
19847;DHT22;10084;50.518;8.588;2022-11-28T04:23:39;4.80;86.50
19847;DHT22;10084;50.518;8.588;2022-11-28T04:26:11;4.90;86.60
19847;DHT22;10084;50.518;8.588;2022-11-28T04:28:39;4.80;86.60
19847;DHT22;10084;50.518;8.588;2022-11-28T04:31:06;4.80;86.70
19847;DHT22;10084;50.518;8.588;2022-11-28T04:33:37;4.80;86.80
19847;DHT22;10084;50.518;8.588;2022-11-28T04:36:04;4.80;87.50
19847;DHT22;10084;50.518;8.588;2022-11-28T04:38:32;4.80;87.00
19847;DHT22;10084;50.518;8.588;2022-11-28T04:41:04;4.80;87.00
19847;DHT22;10084;50.518;8.588;2022-11-28T04:43:37;4.80;87.10
19847;DHT22;10084;50.518;8.588;2022-11-28T04:46:17;4.80;87.10
19847;DHT22;10084;50.518;8.588;2022-11-28T04:48:46;4.80;87.20
19847;DHT22;10084;50.518;8.588;2022-11-28T04:51:30;4.80;87.20
19847;DHT22;10084;50.518;8.588;2022-11-28T04:54:22;4.80;87.30
19847;DHT22;10084;50.518;8.588;2022-11-28T04:57:03;4.80;87.40
19847;DHT22;10084;50.518;8.588;2022-11-28T04:59:33;4.80;87.40
19847;DHT22;10084;50.518;8.588;2022-11-28T05:02:02;4.80;87.50
19847;DHT22;10084;50.518;8.588;2022-11-28T05:04:29;4.80;87.50
19847;DHT22;10084;50.518;8.588;2022-11-28T05:07:04;4.80;87.60
19847;DHT22;10084;50.518;8.588;2022-11-28T05:09:30;4.80;87.60
19847;DHT22;10084;50.518;8.588;2022-11-28T05:11:56;4.80;87.70
19847;DHT22;10084;50.518;8.588;2022-11-28T05:14:22;4.80;87.70
19847;DHT22;10084;50.518;8.588;2022-11-28T05:16:48;4.80;87.80
19847;DHT22;10084;50.518;8.588;2022-11-28T05:19:14;4.80;87.70
19847;DHT22;10084;50.518;8.588;2022-11-28T05:21:40;4.80;87.70
19847;DHT22;10084;50.518;8.588;2022-11-28T05:24:07;4.80;87.70
19847;DHT22;10084;50.518;8.588;2022-11-28T05:26:33;4.80;87.70
19847;DHT22;10084;50.518;8.588;2022-11-28T05:29:00;4.90;87.70
19847;DHT22;10084;50.518;8.588;2022-11-28T05:31:27;4.90;87.70
19847;DHT22;10084;50.518;8.588;2022-11-28T05:33:54;4.90;87.60
19847;DHT22;10084;50.518;8.588;2022-11-28T05:36:20;4.90;87.50
19847;DHT22;10084;50.518;8.588;2022-11-28T05:38:46;4.90;87.50
19847;DHT22;10084;50.518;8.588;2022-11-28T05:41:20;4.90;87.40
19847;DHT22;10084;50.518;8.588;2022-11-28T05:43:46;4.90;87.40
19847;DHT22;10084;50.518;8.588;2022-11-28T05:46:12;4.90;87.40
19847;DHT22;10084;50.518;8.588;2022-11-28T05:48:37;4.90;87.40
19847;DHT22;10084;50.518;8.588;2022-11-28T05:51:04;4.90;87.40
19847;DHT22;10084;50.518;8.588;2022-11-28T05:53:30;4.90;87.30
19847;DHT22;10084;50.518;8.588;2022-11-28T05:55:55;4.90;87.30
19847;DHT22;10084;50.518;8.588;2022-11-28T05:58:21;4.90;87.20
19847;DHT22;10084;50.518;8.588;2022-11-28T06:00:53;4.90;87.10
19847;DHT22;10084;50.518;8.588;2022-11-28T06:03:19;4.90;87.30
19847;DHT22;10084;50.518;8.588;2022-11-28T06:05:45;4.90;88.00
19847;DHT22;10084;50.518;8.588;2022-11-28T06:08:11;4.90;87.40
19847;DHT22;10084;50.518;8.588;2022-11-28T06:10:37;4.90;87.50
19847;DHT22;10084;50.518;8.588;2022-11-28T06:13:03;4.90;87.60
19847;DHT22;10084;50.518;8.588;2022-11-28T06:15:35;4.90;87.60
19847;DHT22;10084;50.518;8.588;2022-11-28T06:18:00;4.90;87.60
19847;DHT22;10084;50.518;8.588;2022-11-28T06:20:26;5.00;87.60
19847;DHT22;10084;50.518;8.588;2022-11-28T06:22:54;5.00;87.50
19847;DHT22;10084;50.518;8.588;2022-11-28T06:25:20;4.90;87.40
19847;DHT22;10084;50.518;8.588;2022-11-28T06:27:46;4.90;87.30
19847;DHT22;10084;50.518;8.588;2022-11-28T06:30:12;4.90;87.40
19847;DHT22;10084;50.518;8.588;2022-11-28T06:32:37;4.90;87.30
19847;DHT22;10084;50.518;8.588;2022-11-28T06:35:03;4.90;87.30
19847;DHT22;10084;50.518;8.588;2022-11-28T06:37:29;4.90;87.40
19847;DHT22;10084;50.518;8.588;2022-11-28T06:39:55;4.90;87.40
19847;DHT22;10084;50.518;8.588;2022-11-28T06:42:20;4.90;87.40
19847;DHT22;10084;50.518;8.588;2022-11-28T06:44:46;4.90;87.50
19847;DHT22;10084;50.518;8.588;2022-11-28T06:47:11;4.90;87.50
19847;DHT22;10084;50.518;8.588;2022-11-28T06:49:37;4.90;87.50
19847;DHT22;10084;50.518;8.588;2022-11-28T06:52:03;4.90;87.60
19847;DHT22;10084;50.518;8.588;2022-11-28T06:54:29;4.90;87.70
19847;DHT22;10084;50.518;8.588;2022-11-28T06:56:54;4.90;87.70
19847;DHT22;10084;50.518;8.588;2022-11-28T06:59:20;4.90;87.60
19847;DHT22;10084;50.518;8.588;2022-11-28T07:01:46;4.90;87.60
19847;DHT22;10084;50.518;8.588;2022-11-28T07:04:11;4.90;87.70
19847;DHT22;10084;50.518;8.588;2022-11-28T07:06:37;4.90;87.80
19847;DHT22;10084;50.518;8.588;2022-11-28T07:09:03;4.90;87.90
19847;DHT22;10084;50.518;8.588;2022-11-28T07:11:30;4.90;88.00
19847;DHT22;10084;50.518;8.588;2022-11-28T07:13:57;5.00;88.00
19847;DHT22;10084;50.518;8.588;2022-11-28T07:16:25;5.00;88.00
19847;DHT22;10084;50.518;8.588;2022-11-28T07:18:52;5.00;88.00
19847;DHT22;10084;50.518;8.588;2022-11-28T07:21:18;5.00;88.10
19847;DHT22;10084;50.518;8.588;2022-11-28T07:23:45;5.00;88.20
19847;DHT22;10084;50.518;8.588;2022-11-28T07:26:13;5.00;88.10
19847;DHT22;10084;50.518;8.588;2022-11-28T07:28:40;5.00;88.10
19847;DHT22;10084;50.518;8.588;2022-11-28T07:31:08;5.00;88.10
19847;DHT22;10084;50.518;8.588;2022-11-28T07:33:39;4.90;88.20
19847;DHT22;10084;50.518;8.588;2022-11-28T07:36:08;4.90;88.30
19847;DHT22;10084;50.518;8.588;2022-11-28T07:38:34;4.90;88.40
19847;DHT22;10084;50.518;8.588;2022-11-28T07:41:10;4.90;88.40
19847;DHT22;10084;50.518;8.588;2022-11-28T07:43:36;4.90;88.50
19847;DHT22;10084;50.518;8.588;2022-11-28T07:46:05;4.90;88.70
19847;DHT22;10084;50.518;8.588;2022-11-28T07:48:31;4.90;88.80
19847;DHT22;10084;50.518;8.588;2022-11-28T07:50:57;4.90;88.80
19847;DHT22;10084;50.518;8.588;2022-11-28T07:53:23;4.90;89.00
19847;DHT22;10084;50.518;8.588;2022-11-28T07:55:48;4.80;89.00
19847;DHT22;10084;50.518;8.588;2022-11-28T07:58:14;4.80;89.00
19847;DHT22;10084;50.518;8.588;2022-11-28T08:00:40;4.80;89.10
19847;DHT22;10084;50.518;8.588;2022-11-28T08:03:06;4.80;89.80
19847;DHT22;10084;50.518;8.588;2022-11-28T08:05:32;4.80;89.20
19847;DHT22;10084;50.518;8.588;2022-11-28T08:07:58;4.80;89.30
19847;DHT22;10084;50.518;8.588;2022-11-28T08:10:23;4.80;89.50
19847;DHT22;10084;50.518;8.588;2022-11-28T08:12:49;4.80;89.40
19847;DHT22;10084;50.518;8.588;2022-11-28T08:15:15;4.80;89.70
19847;DHT22;10084;50.518;8.588;2022-11-28T08:17:40;4.80;89.80
19847;DHT22;10084;50.518;8.588;2022-11-28T08:20:07;4.80;89.80
19847;DHT22;10084;50.518;8.588;2022-11-28T08:22:33;4.80;89.90
19847;DHT22;10084;50.518;8.588;2022-11-28T08:24:59;4.90;90.00
19847;DHT22;10084;50.518;8.588;2022-11-28T08:27:25;4.90;90.00
19847;DHT22;10084;50.518;8.588;2022-11-28T08:29:50;4.90;90.00
19847;DHT22;10084;50.518;8.588;2022-11-28T08:32:16;4.90;90.00
19847;DHT22;10084;50.518;8.588;2022-11-28T08:34:42;4.90;90.00
19847;DHT22;10084;50.518;8.588;2022-11-28T08:37:08;5.00;90.00
19847;DHT22;10084;50.518;8.588;2022-11-28T08:39:33;5.00;90.00
19847;DHT22;10084;50.518;8.588;2022-11-28T08:41:59;5.00;90.00
19847;DHT22;10084;50.518;8.588;2022-11-28T08:44:26;5.00;90.00
19847;DHT22;10084;50.518;8.588;2022-11-28T08:46:52;5.00;89.90
19847;DHT22;10084;50.518;8.588;2022-11-28T08:49:18;5.10;90.00
19847;DHT22;10084;50.518;8.588;2022-11-28T08:51:44;5.10;89.80
19847;DHT22;10084;50.518;8.588;2022-11-28T08:54:10;5.10;89.90
19847;DHT22;10084;50.518;8.588;2022-11-28T08:56:36;5.20;89.80
19847;DHT22;10084;50.518;8.588;2022-11-28T08:59:01;5.20;89.60
19847;DHT22;10084;50.518;8.588;2022-11-28T09:01:27;5.20;89.60
19847;DHT22;10084;50.518;8.588;2022-11-28T09:03:54;5.20;89.50
19847;DHT22;10084;50.518;8.588;2022-11-28T09:06:21;5.20;89.40
19847;DHT22;10084;50.518;8.588;2022-11-28T09:08:48;5.20;89.30
19847;DHT22;10084;50.518;8.588;2022-11-28T09:11:15;5.30;89.40
19847;DHT22;10084;50.518;8.588;2022-11-28T09:13:42;5.30;89.20
19847;DHT22;10084;50.518;8.588;2022-11-28T09:16:08;5.30;89.20
19847;DHT22;10084;50.518;8.588;2022-11-28T09:18:34;5.30;89.20
19847;DHT22;10084;50.518;8.588;2022-11-28T09:21:01;5.30;89.30
19847;DHT22;10084;50.518;8.588;2022-11-28T09:23:28;5.40;89.50
19847;DHT22;10084;50.518;8.588;2022-11-28T09:25:54;5.40;89.30
19847;DHT22;10084;50.518;8.588;2022-11-28T09:28:20;5.40;89.00
19847;DHT22;10084;50.518;8.588;2022-11-28T09:30:45;5.40;89.00
19847;DHT22;10084;50.518;8.588;2022-11-28T09:33:11;5.50;89.10
19847;DHT22;10084;50.518;8.588;2022-11-28T09:35:38;5.50;89.00
19847;DHT22;10084;50.518;8.588;2022-11-28T09:38:05;5.50;88.70
19847;DHT22;10084;50.518;8.588;2022-11-28T09:40:38;5.60;88.80
19847;DHT22;10084;50.518;8.588;2022-11-28T09:45:48;5.70;88.80
19847;DHT22;10084;50.518;8.588;2022-11-28T09:48:47;5.70;88.50
19847;DHT22;10084;50.518;8.588;2022-11-28T09:54:16;5.70;88.40
19847;DHT22;10084;50.518;8.588;2022-11-28T09:56:46;5.70;88.50
19847;DHT22;10084;50.518;8.588;2022-11-28T09:59:30;5.70;88.30
19847;DHT22;10084;50.518;8.588;2022-11-28T10:02:15;5.80;88.40
19847;DHT22;10084;50.518;8.588;2022-11-28T10:07:39;5.90;88.30
19847;DHT22;10084;50.518;8.588;2022-11-28T10:10:19;5.90;88.20
19847;DHT22;10084;50.518;8.588;2022-11-28T10:18:15;6.10;88.60
19847;DHT22;10084;50.518;8.588;2022-11-28T10:20:45;6.10;88.40
19847;DHT22;10084;50.518;8.588;2022-11-28T10:23:15;6.10;88.20
19847;DHT22;10084;50.518;8.588;2022-11-28T10:25:51;6.20;87.80
19847;DHT22;10084;50.518;8.588;2022-11-28T10:28:24;6.20;87.60
19847;DHT22;10084;50.518;8.588;2022-11-28T10:30:59;6.30;87.50
19847;DHT22;10084;50.518;8.588;2022-11-28T10:33:30;6.30;87.40
19847;DHT22;10084;50.518;8.588;2022-11-28T10:35:59;6.30;87.20
19847;DHT22;10084;50.518;8.588;2022-11-28T10:38:27;6.30;87.10
19847;DHT22;10084;50.518;8.588;2022-11-28T10:41:03;6.30;86.90
19847;DHT22;10084;50.518;8.588;2022-11-28T10:49:23;6.40;87.20
19847;DHT22;10084;50.518;8.588;2022-11-28T10:54:52;6.40;87.10
19847;DHT22;10084;50.518;8.588;2022-11-28T11:00:15;6.50;87.00
19847;DHT22;10084;50.518;8.588;2022-11-28T11:02:51;6.50;86.80
19847;DHT22;10084;50.518;8.588;2022-11-28T11:05:23;6.50;86.80
19847;DHT22;10084;50.518;8.588;2022-11-28T11:13:13;6.70;86.90
19847;DHT22;10084;50.518;8.588;2022-11-28T11:15:40;6.70;86.90
19847;DHT22;10084;50.518;8.588;2022-11-28T11:18:28;6.80;86.80
19847;DHT22;10084;50.518;8.588;2022-11-28T11:21:15;6.80;86.40
19847;DHT22;10084;50.518;8.588;2022-11-28T11:23:42;6.80;86.70
19847;DHT22;10084;50.518;8.588;2022-11-28T11:26:25;6.80;86.90
19847;DHT22;10084;50.518;8.588;2022-11-28T11:28:51;6.80;87.10
19847;DHT22;10084;50.518;8.588;2022-11-28T11:31:36;6.90;87.40
19847;DHT22;10084;50.518;8.588;2022-11-28T11:34:12;7.00;87.80
19847;DHT22;10084;50.518;8.588;2022-11-28T11:36:39;7.10;87.90
19847;DHT22;10084;50.518;8.588;2022-11-28T11:41:39;7.20;86.90
19847;DHT22;10084;50.518;8.588;2022-11-28T11:47:09;7.30;86.20
19847;DHT22;10084;50.518;8.588;2022-11-28T11:49:46;7.30;85.70
19847;DHT22;10084;50.518;8.588;2022-11-28T11:52:24;7.20;85.70
19847;DHT22;10084;50.518;8.588;2022-11-28T11:57:24;7.10;85.90
19847;DHT22;10084;50.518;8.588;2022-11-28T12:00:16;7.10;86.00
19847;DHT22;10084;50.518;8.588;2022-11-28T12:03:04;7.10;86.40
19847;DHT22;10084;50.518;8.588;2022-11-28T12:05:48;7.20;87.10
19847;DHT22;10084;50.518;8.588;2022-11-28T12:08:25;7.30;87.10
19847;DHT22;10084;50.518;8.588;2022-11-28T12:11:25;7.30;86.80
19847;DHT22;10084;50.518;8.588;2022-11-28T12:13:52;7.40;86.20
19847;DHT22;10084;50.518;8.588;2022-11-28T12:22:08;7.40;85.50
19847;DHT22;10084;50.518;8.588;2022-11-28T12:30:38;7.30;85.50
19847;DHT22;10084;50.518;8.588;2022-11-28T12:33:18;7.30;85.60
19847;DHT22;10084;50.518;8.588;2022-11-28T12:36:03;7.30;85.70
19847;DHT22;10084;50.518;8.588;2022-11-28T12:41:38;7.30;86.00
19847;DHT22;10084;50.518;8.588;2022-11-28T12:47:52;7.30;85.80
19847;DHT22;10084;50.518;8.588;2022-11-28T13:00:20;7.30;86.20
19847;DHT22;10084;50.518;8.588;2022-11-28T13:06:08;7.30;86.50
19847;DHT22;10084;50.518;8.588;2022-11-28T13:11:47;7.20;86.30
19847;DHT22;10084;50.518;8.588;2022-11-28T13:22:50;7.20;87.10
19847;DHT22;10084;50.518;8.588;2022-11-28T13:25:37;7.20;87.10
19847;DHT22;10084;50.518;8.588;2022-11-28T13:30:48;7.20;87.00
19847;DHT22;10084;50.518;8.588;2022-11-28T13:33:36;7.30;87.10
19847;DHT22;10084;50.518;8.588;2022-11-28T13:36:06;7.30;86.90
19847;DHT22;10084;50.518;8.588;2022-11-28T13:44:00;7.30;87.10
19847;DHT22;10084;50.518;8.588;2022-11-28T13:46:29;7.30;87.20
19847;DHT22;10084;50.518;8.588;2022-11-28T13:49:01;7.30;87.30
19847;DHT22;10084;50.518;8.588;2022-11-28T13:51:32;7.30;87.30
19847;DHT22;10084;50.518;8.588;2022-11-28T14:02:42;7.20;87.40
19847;DHT22;10084;50.518;8.588;2022-11-28T14:05:33;7.10;87.50
19847;DHT22;10084;50.518;8.588;2022-11-28T14:08:02;7.10;87.80
19847;DHT22;10084;50.518;8.588;2022-11-28T14:21:08;7.00;89.00
19847;DHT22;10084;50.518;8.588;2022-11-28T14:24:02;7.00;89.40
19847;DHT22;10084;50.518;8.588;2022-11-28T14:26:37;7.00;89.60
19847;DHT22;10084;50.518;8.588;2022-11-28T14:29:16;7.00;89.50
19847;DHT22;10084;50.518;8.588;2022-11-28T14:31:44;7.00;89.70
19847;DHT22;10084;50.518;8.588;2022-11-28T14:34:36;7.00;89.80
19847;DHT22;10084;50.518;8.588;2022-11-28T14:39:49;7.00;90.10
19847;DHT22;10084;50.518;8.588;2022-11-28T14:42:20;7.00;90.20
19847;DHT22;10084;50.518;8.588;2022-11-28T14:47:32;6.90;90.30
19847;DHT22;10084;50.518;8.588;2022-11-28T14:52:36;7.00;90.50
19847;DHT22;10084;50.518;8.588;2022-11-28T14:55:04;6.90;90.60
19847;DHT22;10084;50.518;8.588;2022-11-28T14:57:59;7.00;90.70
19847;DHT22;10084;50.518;8.588;2022-11-28T15:00:31;6.90;90.70
19847;DHT22;10084;50.518;8.588;2022-11-28T15:06:17;7.00;90.80
19847;DHT22;10084;50.518;8.588;2022-11-28T15:09:03;7.00;91.00
19847;DHT22;10084;50.518;8.588;2022-11-28T15:14:21;7.00;91.00
19847;DHT22;10084;50.518;8.588;2022-11-28T15:16:50;7.00;91.20
19847;DHT22;10084;50.518;8.588;2022-11-28T15:19:20;7.00;91.40
19847;DHT22;10084;50.518;8.588;2022-11-28T15:21:50;7.00;91.30
19847;DHT22;10084;50.518;8.588;2022-11-28T15:24:31;7.00;91.40
19847;DHT22;10084;50.518;8.588;2022-11-28T15:27:21;7.10;91.50
19847;DHT22;10084;50.518;8.588;2022-11-28T15:29:58;7.10;91.40
19847;DHT22;10084;50.518;8.588;2022-11-28T15:32:27;7.10;91.30
19847;DHT22;10084;50.518;8.588;2022-11-28T15:34:59;7.10;91.40
19847;DHT22;10084;50.518;8.588;2022-11-28T15:37:30;7.10;91.40
19847;DHT22;10084;50.518;8.588;2022-11-28T15:39:56;7.00;91.50
19847;DHT22;10084;50.518;8.588;2022-11-28T15:42:29;7.10;91.50
19847;DHT22;10084;50.518;8.588;2022-11-28T15:44:58;7.10;91.60
19847;DHT22;10084;50.518;8.588;2022-11-28T15:47:25;7.10;91.60
19847;DHT22;10084;50.518;8.588;2022-11-28T15:50:19;7.10;91.90
19847;DHT22;10084;50.518;8.588;2022-11-28T15:53:13;7.10;91.70
19847;DHT22;10084;50.518;8.588;2022-11-28T15:55:39;7.10;91.70
19847;DHT22;10084;50.518;8.588;2022-11-28T16:00:40;7.20;91.70
19847;DHT22;10084;50.518;8.588;2022-11-28T16:03:17;7.20;91.80
19847;DHT22;10084;50.518;8.588;2022-11-28T16:05:46;7.20;91.70
19847;DHT22;10084;50.518;8.588;2022-11-28T16:10:53;7.20;91.90
19847;DHT22;10084;50.518;8.588;2022-11-28T16:13:20;7.20;92.00
19847;DHT22;10084;50.518;8.588;2022-11-28T16:15:49;7.30;91.80
19847;DHT22;10084;50.518;8.588;2022-11-28T16:18:17;7.30;91.80
19847;DHT22;10084;50.518;8.588;2022-11-28T16:20:44;7.30;91.70
19847;DHT22;10084;50.518;8.588;2022-11-28T16:23:20;7.20;91.70
19847;DHT22;10084;50.518;8.588;2022-11-28T16:26:17;7.20;91.80
19847;DHT22;10084;50.518;8.588;2022-11-28T16:28:59;7.30;92.00
19847;DHT22;10084;50.518;8.588;2022-11-28T16:31:27;7.30;92.10
19847;DHT22;10084;50.518;8.588;2022-11-28T16:33:53;7.30;92.00
19847;DHT22;10084;50.518;8.588;2022-11-28T16:36:25;7.30;91.70
19847;DHT22;10084;50.518;8.588;2022-11-28T16:42:06;7.30;91.70
19847;DHT22;10084;50.518;8.588;2022-11-28T16:44:36;7.30;91.70
19847;DHT22;10084;50.518;8.588;2022-11-28T16:47:02;7.30;91.60
19847;DHT22;10084;50.518;8.588;2022-11-28T16:49:38;7.30;91.70
19847;DHT22;10084;50.518;8.588;2022-11-28T16:58:11;7.30;91.70
19847;DHT22;10084;50.518;8.588;2022-11-28T17:00:41;7.20;91.70
19847;DHT22;10084;50.518;8.588;2022-11-28T17:03:40;7.20;91.70
19847;DHT22;10084;50.518;8.588;2022-11-28T17:06:28;7.20;91.90
19847;DHT22;10084;50.518;8.588;2022-11-28T17:08:59;7.20;92.00
19847;DHT22;10084;50.518;8.588;2022-11-28T17:11:28;7.20;92.10
19847;DHT22;10084;50.518;8.588;2022-11-28T17:13:54;7.30;92.20
19847;DHT22;10084;50.518;8.588;2022-11-28T17:16:22;7.30;92.10
19847;DHT22;10084;50.518;8.588;2022-11-28T17:18:49;7.30;92.10
19847;DHT22;10084;50.518;8.588;2022-11-28T17:21:17;7.40;92.10
19847;DHT22;10084;50.518;8.588;2022-11-28T17:23:45;7.40;92.00
19847;DHT22;10084;50.518;8.588;2022-11-28T17:26:11;7.50;92.10
19847;DHT22;10084;50.518;8.588;2022-11-28T17:28:37;7.50;92.00
19847;DHT22;10084;50.518;8.588;2022-11-28T17:31:03;7.50;92.00
19847;DHT22;10084;50.518;8.588;2022-11-28T17:33:29;7.50;92.00
19847;DHT22;10084;50.518;8.588;2022-11-28T17:35:56;7.50;92.10
19847;DHT22;10084;50.518;8.588;2022-11-28T17:38:22;7.60;92.10
19847;DHT22;10084;50.518;8.588;2022-11-28T17:40:48;7.60;92.20
19847;DHT22;10084;50.518;8.588;2022-11-28T17:43:19;7.60;92.10
19847;DHT22;10084;50.518;8.588;2022-11-28T17:45:46;7.60;91.90
19847;DHT22;10084;50.518;8.588;2022-11-28T17:48:13;7.60;92.00
19847;DHT22;10084;50.518;8.588;2022-11-28T17:50:42;7.60;92.10
19847;DHT22;10084;50.518;8.588;2022-11-28T17:53:15;7.60;92.00
19847;DHT22;10084;50.518;8.588;2022-11-28T17:55:43;7.60;91.90
19847;DHT22;10084;50.518;8.588;2022-11-28T17:58:16;7.60;91.90
19847;DHT22;10084;50.518;8.588;2022-11-28T18:00:42;7.60;91.90
19847;DHT22;10084;50.518;8.588;2022-11-28T18:03:08;7.60;91.80
19847;DHT22;10084;50.518;8.588;2022-11-28T18:05:36;7.70;91.80
19847;DHT22;10084;50.518;8.588;2022-11-28T18:08:03;7.60;91.70
19847;DHT22;10084;50.518;8.588;2022-11-28T18:10:28;7.60;91.70
19847;DHT22;10084;50.518;8.588;2022-11-28T18:12:54;7.70;91.70
19847;DHT22;10084;50.518;8.588;2022-11-28T18:15:24;7.70;91.70
19847;DHT22;10084;50.518;8.588;2022-11-28T18:17:51;7.70;91.70
19847;DHT22;10084;50.518;8.588;2022-11-28T18:20:18;7.70;91.60
19847;DHT22;10084;50.518;8.588;2022-11-28T18:22:45;7.70;91.60
19847;DHT22;10084;50.518;8.588;2022-11-28T18:25:11;7.70;91.70
19847;DHT22;10084;50.518;8.588;2022-11-28T18:27:37;7.70;91.70
19847;DHT22;10084;50.518;8.588;2022-11-28T18:30:04;7.70;91.80
19847;DHT22;10084;50.518;8.588;2022-11-28T18:32:31;7.70;92.00
19847;DHT22;10084;50.518;8.588;2022-11-28T18:34:57;7.70;92.00
19847;DHT22;10084;50.518;8.588;2022-11-28T18:37:23;7.70;92.10
19847;DHT22;10084;50.518;8.588;2022-11-28T18:39:48;7.70;92.00
19847;DHT22;10084;50.518;8.588;2022-11-28T18:42:15;7.70;92.10
19847;DHT22;10084;50.518;8.588;2022-11-28T18:44:41;7.70;92.20
19847;DHT22;10084;50.518;8.588;2022-11-28T18:47:08;7.70;92.40
19847;DHT22;10084;50.518;8.588;2022-11-28T18:49:34;7.70;92.60
19847;DHT22;10084;50.518;8.588;2022-11-28T18:52:00;7.70;92.70
19847;DHT22;10084;50.518;8.588;2022-11-28T18:54:27;7.70;92.80
19847;DHT22;10084;50.518;8.588;2022-11-28T18:56:55;7.80;92.70
19847;DHT22;10084;50.518;8.588;2022-11-28T18:59:21;7.70;92.60
19847;DHT22;10084;50.518;8.588;2022-11-28T19:01:47;7.70;92.60
19847;DHT22;10084;50.518;8.588;2022-11-28T19:04:14;7.70;92.70
19847;DHT22;10084;50.518;8.588;2022-11-28T19:06:43;7.70;92.80
19847;DHT22;10084;50.518;8.588;2022-11-28T19:09:11;7.70;92.90